sensor_id;sensor_type;location;lat;lon;timestamp;P1;durP1;ratioP1;P2;durP2;ratioP2
52962;SDS011;38827;53.024;6.596;2023-02-19T00:01:38;24.98;;;15.13;;
52962;SDS011;38827;53.024;6.596;2023-02-19T00:04:16;30.42;;;16.02;;
52962;SDS011;38827;53.024;6.596;2023-02-19T00:06:44;29.70;;;15.07;;
52962;SDS011;38827;53.024;6.596;2023-02-19T00:09:11;24.83;;;14.52;;
52962;SDS011;38827;53.024;6.596;2023-02-19T00:11:39;25.00;;;15.23;;
52962;SDS011;38827;53.024;6.596;2023-02-19T00:14:06;25.50;;;14.07;;
52962;SDS011;38827;53.024;6.596;2023-02-19T00:16:34;28.60;;;15.43;;
52962;SDS011;38827;53.024;6.596;2023-02-19T00:19:03;27.83;;;15.30;;
52962;SDS011;38827;53.024;6.596;2023-02-19T00:21:30;30.38;;;15.48;;
52962;SDS011;38827;53.024;6.596;2023-02-19T00:23:57;27.77;;;14.45;;
52962;SDS011;38827;53.024;6.596;2023-02-19T00:26:28;26.85;;;15.00;;
52962;SDS011;38827;53.024;6.596;2023-02-19T00:28:55;28.13;;;15.10;;
52962;SDS011;38827;53.024;6.596;2023-02-19T00:31:28;25.48;;;14.15;;
52962;SDS011;38827;53.024;6.596;2023-02-19T00:33:57;23.92;;;14.98;;
52962;SDS011;38827;53.024;6.596;2023-02-19T00:36:30;25.52;;;15.07;;
52962;SDS011;38827;53.024;6.596;2023-02-19T00:38:57;25.88;;;15.05;;
52962;SDS011;38827;53.024;6.596;2023-02-19T00:41:23;27.45;;;15.52;;
52962;SDS011;38827;53.024;6.596;2023-02-19T00:43:56;29.10;;;15.03;;
52962;SDS011;38827;53.024;6.596;2023-02-19T00:49:00;28.52;;;14.70;;
52962;SDS011;38827;53.024;6.596;2023-02-19T00:51:27;26.08;;;14.57;;
52962;SDS011;38827;53.024;6.596;2023-02-19T00:53:55;29.60;;;16.08;;
52962;SDS011;38827;53.024;6.596;2023-02-19T00:56:21;31.30;;;15.55;;
52962;SDS011;38827;53.024;6.596;2023-02-19T00:58:47;25.50;;;13.95;;
52962;SDS011;38827;53.024;6.596;2023-02-19T01:01:13;25.20;;;14.63;;
52962;SDS011;38827;53.024;6.596;2023-02-19T01:03:39;29.90;;;15.10;;
52962;SDS011;38827;53.024;6.596;2023-02-19T01:06:14;32.47;;;14.23;;
52962;SDS011;38827;53.024;6.596;2023-02-19T01:08:41;28.05;;;14.85;;
52962;SDS011;38827;53.024;6.596;2023-02-19T01:11:08;27.23;;;13.68;;
52962;SDS011;38827;53.024;6.596;2023-02-19T01:18:38;23.58;;;11.55;;
52962;SDS011;38827;53.024;6.596;2023-02-19T01:21:05;25.13;;;14.13;;
52962;SDS011;38827;53.024;6.596;2023-02-19T01:23:32;25.25;;;12.48;;
52962;SDS011;38827;53.024;6.596;2023-02-19T01:26:01;27.38;;;13.32;;
52962;SDS011;38827;53.024;6.596;2023-02-19T01:28:55;27.92;;;12.77;;
52962;SDS011;38827;53.024;6.596;2023-02-19T01:31:23;24.50;;;11.52;;
52962;SDS011;38827;53.024;6.596;2023-02-19T01:33:50;26.45;;;13.65;;
52962;SDS011;38827;53.024;6.596;2023-02-19T01:36:18;29.42;;;11.90;;
52962;SDS011;38827;53.024;6.596;2023-02-19T01:38:44;27.60;;;11.90;;
52962;SDS011;38827;53.024;6.596;2023-02-19T01:41:10;23.90;;;12.10;;
52962;SDS011;38827;53.024;6.596;2023-02-19T01:43:54;21.52;;;11.10;;
52962;SDS011;38827;53.024;6.596;2023-02-19T01:46:24;25.98;;;11.90;;
52962;SDS011;38827;53.024;6.596;2023-02-19T01:48:53;23.10;;;10.88;;
52962;SDS011;38827;53.024;6.596;2023-02-19T01:51:20;19.90;;;10.77;;
52962;SDS011;38827;53.024;6.596;2023-02-19T01:53:49;15.10;;;9.25;;
52962;SDS011;38827;53.024;6.596;2023-02-19T01:56:18;19.75;;;10.88;;
52962;SDS011;38827;53.024;6.596;2023-02-19T01:58:45;20.40;;;10.20;;
52962;SDS011;38827;53.024;6.596;2023-02-19T02:01:11;18.60;;;9.57;;
52962;SDS011;38827;53.024;6.596;2023-02-19T02:03:37;17.90;;;9.95;;
52962;SDS011;38827;53.024;6.596;2023-02-19T02:06:07;21.38;;;9.60;;
52962;SDS011;38827;53.024;6.596;2023-02-19T02:08:39;23.05;;;9.68;;
52962;SDS011;38827;53.024;6.596;2023-02-19T02:11:24;19.20;;;9.45;;
52962;SDS011;38827;53.024;6.596;2023-02-19T02:13:51;13.77;;;8.90;;
52962;SDS011;38827;53.024;6.596;2023-02-19T02:18:57;15.45;;;9.00;;
52962;SDS011;38827;53.024;6.596;2023-02-19T02:21:49;17.20;;;8.35;;
52962;SDS011;38827;53.024;6.596;2023-02-19T02:30:06;18.42;;;9.00;;
52962;SDS011;38827;53.024;6.596;2023-02-19T02:32:37;17.40;;;9.20;;
52962;SDS011;38827;53.024;6.596;2023-02-19T02:35:17;17.77;;;8.60;;
52962;SDS011;38827;53.024;6.596;2023-02-19T02:37:47;16.33;;;9.00;;
52962;SDS011;38827;53.024;6.596;2023-02-19T02:40:13;16.73;;;9.07;;
52962;SDS011;38827;53.024;6.596;2023-02-19T02:45:19;18.35;;;9.68;;
52962;SDS011;38827;53.024;6.596;2023-02-19T02:48:01;17.10;;;8.63;;
52962;SDS011;38827;53.024;6.596;2023-02-19T02:50:41;4.20;;;3.58;;
52962;SDS011;38827;53.024;6.596;2023-02-19T02:53:14;2.70;;;2.13;;
52962;SDS011;38827;53.024;6.596;2023-02-19T02:56:05;2.33;;;1.90;;
52962;SDS011;38827;53.024;6.596;2023-02-19T02:58:32;2.00;;;1.80;;
52962;SDS011;38827;53.024;6.596;2023-02-19T03:01:00;2.80;;;1.67;;
52962;SDS011;38827;53.024;6.596;2023-02-19T03:03:50;1.92;;;1.80;;
52962;SDS011;38827;53.024;6.596;2023-02-19T03:06:20;2.15;;;1.73;;
52962;SDS011;38827;53.024;6.596;2023-02-19T03:09:06;2.47;;;1.70;;
52962;SDS011;38827;53.024;6.596;2023-02-19T03:11:45;1.75;;;1.65;;
52962;SDS011;38827;53.024;6.596;2023-02-19T03:14:37;2.38;;;1.83;;
52962;SDS011;38827;53.024;6.596;2023-02-19T03:17:30;2.28;;;1.77;;
52962;SDS011;38827;53.024;6.596;2023-02-19T03:20:18;1.98;;;1.60;;
52962;SDS011;38827;53.024;6.596;2023-02-19T03:22:50;1.75;;;1.65;;
52962;SDS011;38827;53.024;6.596;2023-02-19T03:28:04;1.92;;;1.75;;
52962;SDS011;38827;53.024;6.596;2023-02-19T03:30:41;1.67;;;1.55;;
52962;SDS011;38827;53.024;6.596;2023-02-19T03:33:17;2.00;;;1.75;;
52962;SDS011;38827;53.024;6.596;2023-02-19T03:35:51;1.70;;;1.50;;
52962;SDS011;38827;53.024;6.596;2023-02-19T03:38:25;1.60;;;1.50;;
52962;SDS011;38827;53.024;6.596;2023-02-19T03:43:41;3.25;;;1.70;;
52962;SDS011;38827;53.024;6.596;2023-02-19T03:46:21;2.92;;;2.03;;
52962;SDS011;38827;53.024;6.596;2023-02-19T03:49:02;2.95;;;2.20;;
52962;SDS011;38827;53.024;6.596;2023-02-19T03:57:03;2.22;;;2.03;;
52962;SDS011;38827;53.024;6.596;2023-02-19T04:09:33;2.15;;;1.73;;
52962;SDS011;38827;53.024;6.596;2023-02-19T04:12:35;1.80;;;1.55;;
52962;SDS011;38827;53.024;6.596;2023-02-19T04:15:33;1.60;;;1.40;;
52962;SDS011;38827;53.024;6.596;2023-02-19T04:18:11;1.92;;;1.38;;
52962;SDS011;38827;53.024;6.596;2023-02-19T04:27:43;2.75;;;2.45;;
52962;SDS011;38827;53.024;6.596;2023-02-19T04:33:17;3.40;;;3.00;;
52962;SDS011;38827;53.024;6.596;2023-02-19T04:35:45;3.38;;;2.90;;
52962;SDS011;38827;53.024;6.596;2023-02-19T04:38:28;3.10;;;2.60;;
52962;SDS011;38827;53.024;6.596;2023-02-19T04:46:49;2.92;;;2.33;;
52962;SDS011;38827;53.024;6.596;2023-02-19T04:49:15;4.43;;;2.47;;
52962;SDS011;38827;53.024;6.596;2023-02-19T04:51:41;3.92;;;2.72;;
52962;SDS011;38827;53.024;6.596;2023-02-19T04:54:11;3.78;;;3.08;;
52962;SDS011;38827;53.024;6.596;2023-02-19T04:56:36;5.93;;;3.22;;
52962;SDS011;38827;53.024;6.596;2023-02-19T04:59:03;6.47;;;4.00;;
52962;SDS011;38827;53.024;6.596;2023-02-19T05:01:29;6.93;;;4.03;;
52962;SDS011;38827;53.024;6.596;2023-02-19T05:03:55;5.32;;;4.18;;
52962;SDS011;38827;53.024;6.596;2023-02-19T05:06:21;8.15;;;4.78;;
52962;SDS011;38827;53.024;6.596;2023-02-19T05:08:47;6.53;;;5.22;;
52962;SDS011;38827;53.024;6.596;2023-02-19T05:11:13;8.05;;;5.13;;
52962;SDS011;38827;53.024;6.596;2023-02-19T05:13:42;7.55;;;5.35;;
52962;SDS011;38827;53.024;6.596;2023-02-19T05:16:10;7.68;;;5.45;;
52962;SDS011;38827;53.024;6.596;2023-02-19T05:18:44;7.13;;;5.18;;
52962;SDS011;38827;53.024;6.596;2023-02-19T05:21:10;8.65;;;5.60;;
52962;SDS011;38827;53.024;6.596;2023-02-19T05:23:36;8.38;;;5.82;;
52962;SDS011;38827;53.024;6.596;2023-02-19T05:26:10;7.05;;;5.35;;
52962;SDS011;38827;53.024;6.596;2023-02-19T05:28:42;6.82;;;5.50;;
52962;SDS011;38827;53.024;6.596;2023-02-19T05:33:35;6.90;;;4.97;;
52962;SDS011;38827;53.024;6.596;2023-02-19T05:36:05;6.05;;;5.05;;
52962;SDS011;38827;53.024;6.596;2023-02-19T05:38:33;7.30;;;5.57;;
52962;SDS011;38827;53.024;6.596;2023-02-19T05:41:09;6.95;;;5.57;;
52962;SDS011;38827;53.024;6.596;2023-02-19T05:43:38;8.20;;;5.45;;
52962;SDS011;38827;53.024;6.596;2023-02-19T05:46:04;7.10;;;5.10;;
52962;SDS011;38827;53.024;6.596;2023-02-19T05:48:31;6.22;;;4.25;;
52962;SDS011;38827;53.024;6.596;2023-02-19T05:51:01;7.53;;;4.23;;
52962;SDS011;38827;53.024;6.596;2023-02-19T05:53:28;7.35;;;4.10;;
52962;SDS011;38827;53.024;6.596;2023-02-19T05:55:54;7.22;;;4.20;;
52962;SDS011;38827;53.024;6.596;2023-02-19T05:58:20;5.10;;;3.95;;
52962;SDS011;38827;53.024;6.596;2023-02-19T06:00:46;5.60;;;4.10;;
52962;SDS011;38827;53.024;6.596;2023-02-19T06:03:12;4.75;;;3.33;;
52962;SDS011;38827;53.024;6.596;2023-02-19T06:05:37;5.22;;;3.10;;
52962;SDS011;38827;53.024;6.596;2023-02-19T06:08:03;5.93;;;2.72;;
52962;SDS011;38827;53.024;6.596;2023-02-19T06:10:32;5.25;;;2.80;;
52962;SDS011;38827;53.024;6.596;2023-02-19T06:12:59;3.42;;;2.30;;
52962;SDS011;38827;53.024;6.596;2023-02-19T06:15:30;4.38;;;2.90;;
52962;SDS011;38827;53.024;6.596;2023-02-19T06:17:55;4.18;;;2.20;;
52962;SDS011;38827;53.024;6.596;2023-02-19T06:20:21;3.70;;;2.38;;
52962;SDS011;38827;53.024;6.596;2023-02-19T06:22:48;4.55;;;2.90;;
52962;SDS011;38827;53.024;6.596;2023-02-19T06:25:14;4.72;;;2.50;;
52962;SDS011;38827;53.024;6.596;2023-02-19T06:27:40;4.07;;;2.53;;
52962;SDS011;38827;53.024;6.596;2023-02-19T06:30:07;3.45;;;2.55;;
52962;SDS011;38827;53.024;6.596;2023-02-19T06:33:12;3.30;;;2.63;;
52962;SDS011;38827;53.024;6.596;2023-02-19T06:35:41;4.82;;;2.97;;
52962;SDS011;38827;53.024;6.596;2023-02-19T06:38:22;5.85;;;3.20;;
52962;SDS011;38827;53.024;6.596;2023-02-19T07:01:09;5.80;;;3.80;;
52962;SDS011;38827;53.024;6.596;2023-02-19T07:04:44;5.63;;;3.75;;
52962;SDS011;38827;53.024;6.596;2023-02-19T07:13:11;4.57;;;3.38;;
52962;SDS011;38827;53.024;6.596;2023-02-19T07:15:47;8.93;;;3.88;;
52962;SDS011;38827;53.024;6.596;2023-02-19T07:19:04;6.80;;;3.55;;
52962;SDS011;38827;53.024;6.596;2023-02-19T07:21:50;5.55;;;3.50;;
52962;SDS011;38827;53.024;6.596;2023-02-19T07:45:38;4.47;;;2.65;;
52962;SDS011;38827;53.024;6.596;2023-02-19T08:10:28;1.60;;;1.40;;
52962;SDS011;38827;53.024;6.596;2023-02-19T08:16:12;2.53;;;1.42;;
52962;SDS011;38827;53.024;6.596;2023-02-19T08:21:53;3.10;;;1.50;;
52962;SDS011;38827;53.024;6.596;2023-02-19T08:24:20;2.28;;;1.50;;
52962;SDS011;38827;53.024;6.596;2023-02-19T08:26:52;2.27;;;1.13;;
52962;SDS011;38827;53.024;6.596;2023-02-19T08:29:33;2.33;;;1.30;;
52962;SDS011;38827;53.024;6.596;2023-02-19T08:32:17;2.17;;;1.17;;
52962;SDS011;38827;53.024;6.596;2023-02-19T08:34:43;3.25;;;1.40;;
52962;SDS011;38827;53.024;6.596;2023-02-19T08:37:27;2.83;;;1.47;;
52962;SDS011;38827;53.024;6.596;2023-02-19T08:40:03;2.08;;;1.25;;
52962;SDS011;38827;53.024;6.596;2023-02-19T08:42:29;2.25;;;1.40;;
52962;SDS011;38827;53.024;6.596;2023-02-19T08:44:55;2.57;;;1.13;;
52962;SDS011;38827;53.024;6.596;2023-02-19T08:47:24;2.17;;;1.13;;
52962;SDS011;38827;53.024;6.596;2023-02-19T08:56:13;2.17;;;1.20;;
52962;SDS011;38827;53.024;6.596;2023-02-19T08:59:15;2.22;;;1.00;;
52962;SDS011;38827;53.024;6.596;2023-02-19T09:01:41;3.65;;;1.27;;
52962;SDS011;38827;53.024;6.596;2023-02-19T09:04:38;3.08;;;1.10;;
52962;SDS011;38827;53.024;6.596;2023-02-19T09:07:12;2.47;;;1.00;;
52962;SDS011;38827;53.024;6.596;2023-02-19T09:09:50;1.73;;;1.10;;
52962;SDS011;38827;53.024;6.596;2023-02-19T09:18:51;3.70;;;1.35;;
52962;SDS011;38827;53.024;6.596;2023-02-19T09:24:49;3.97;;;1.40;;
52962;SDS011;38827;53.024;6.596;2023-02-19T10:14:15;1.23;;;0.80;;
52962;SDS011;38827;53.024;6.596;2023-02-19T10:17:05;2.78;;;1.20;;
52962;SDS011;38827;53.024;6.596;2023-02-19T10:57:49;1.42;;;0.50;;
52962;SDS011;38827;53.024;6.596;2023-02-19T11:01:18;2.63;;;0.73;;
52962;SDS011;38827;53.024;6.596;2023-02-19T11:04:16;1.48;;;0.40;;
52962;SDS011;38827;53.024;6.596;2023-02-19T11:10:41;1.30;;;0.52;;
52962;SDS011;38827;53.024;6.596;2023-02-19T11:13:45;2.35;;;0.50;;
52962;SDS011;38827;53.024;6.596;2023-02-19T11:16:11;2.28;;;0.50;;
52962;SDS011;38827;53.024;6.596;2023-02-19T11:18:36;1.67;;;0.53;;
52962;SDS011;38827;53.024;6.596;2023-02-19T11:27:31;1.85;;;0.60;;
52962;SDS011;38827;53.024;6.596;2023-02-19T12:05:42;2.47;;;0.70;;
52962;SDS011;38827;53.024;6.596;2023-02-19T13:09:19;1.98;;;0.45;;
52962;SDS011;38827;53.024;6.596;2023-02-19T13:12:57;2.57;;;0.60;;
52962;SDS011;38827;53.024;6.596;2023-02-19T13:19:53;1.90;;;0.60;;
52962;SDS011;38827;53.024;6.596;2023-02-19T14:27:10;3.08;;;1.05;;
52962;SDS011;38827;53.024;6.596;2023-02-19T14:30:17;5.68;;;0.93;;
52962;SDS011;38827;53.024;6.596;2023-02-19T14:40:49;2.10;;;0.60;;
52962;SDS011;38827;53.024;6.596;2023-02-19T14:53:02;2.70;;;0.90;;
52962;SDS011;38827;53.024;6.596;2023-02-19T15:19:11;2.00;;;0.60;;
52962;SDS011;38827;53.024;6.596;2023-02-19T16:22:58;4.47;;;1.52;;
52962;SDS011;38827;53.024;6.596;2023-02-19T16:34:54;7.63;;;1.58;;
52962;SDS011;38827;53.024;6.596;2023-02-19T16:41:57;3.83;;;1.48;;
52962;SDS011;38827;53.024;6.596;2023-02-19T17:00:30;6.32;;;1.38;;
52962;SDS011;38827;53.024;6.596;2023-02-19T17:12:22;9.63;;;1.80;;
52962;SDS011;38827;53.024;6.596;2023-02-19T18:02:15;5.85;;;2.00;;
52962;SDS011;38827;53.024;6.596;2023-02-19T18:11:18;6.55;;;2.20;;
52962;SDS011;38827;53.024;6.596;2023-02-19T18:13:55;9.13;;;2.55;;
52962;SDS011;38827;53.024;6.596;2023-02-19T18:23:38;7.75;;;2.20;;
52962;SDS011;38827;53.024;6.596;2023-02-19T18:26:20;5.22;;;1.70;;
52962;SDS011;38827;53.024;6.596;2023-02-19T18:29:08;8.57;;;1.88;;
52962;SDS011;38827;53.024;6.596;2023-02-19T18:31:34;9.60;;;2.30;;
52962;SDS011;38827;53.024;6.596;2023-02-19T19:10:46;6.95;;;2.60;;
52962;SDS011;38827;53.024;6.596;2023-02-19T19:13:30;11.00;;;3.55;;
52962;SDS011;38827;53.024;6.596;2023-02-19T19:42:27;8.27;;;2.70;;
52962;SDS011;38827;53.024;6.596;2023-02-19T20:12:46;4.97;;;1.80;;
52962;SDS011;38827;53.024;6.596;2023-02-19T20:19:36;6.22;;;1.75;;
52962;SDS011;38827;53.024;6.596;2023-02-19T20:40:26;3.30;;;2.20;;
52962;SDS011;38827;53.024;6.596;2023-02-19T21:14:01;4.47;;;1.80;;
52962;SDS011;38827;53.024;6.596;2023-02-19T21:16:35;5.13;;;1.67;;
52962;SDS011;38827;53.024;6.596;2023-02-19T21:22:14;4.00;;;2.05;;
52962;SDS011;38827;53.024;6.596;2023-02-19T21:30:25;4.28;;;2.03;;
52962;SDS011;38827;53.024;6.596;2023-02-19T21:45:37;6.78;;;2.00;;
52962;SDS011;38827;53.024;6.596;2023-02-19T21:48:06;3.42;;;1.90;;
52962;SDS011;38827;53.024;6.596;2023-02-19T21:50:38;5.72;;;1.90;;
52962;SDS011;38827;53.024;6.596;2023-02-19T21:56:52;3.05;;;2.10;;
52962;SDS011;38827;53.024;6.596;2023-02-19T21:59:21;5.80;;;2.00;;
52962;SDS011;38827;53.024;6.596;2023-02-19T22:03:14;3.03;;;1.85;;
52962;SDS011;38827;53.024;6.596;2023-02-19T22:09:26;3.28;;;2.33;;
52962;SDS011;38827;53.024;6.596;2023-02-19T22:15:48;5.90;;;2.60;;
52962;SDS011;38827;53.024;6.596;2023-02-19T22:43:42;4.22;;;2.95;;
52962;SDS011;38827;53.024;6.596;2023-02-19T22:49:40;4.38;;;3.03;;
52962;SDS011;38827;53.024;6.596;2023-02-19T22:58:21;6.07;;;3.78;;
52962;SDS011;38827;53.024;6.596;2023-02-19T23:01:07;4.85;;;3.40;;
52962;SDS011;38827;53.024;6.596;2023-02-19T23:28:28;9.43;;;5.80;;
52962;SDS011;38827;53.024;6.596;2023-02-19T23:30:59;9.17;;;5.30;;
52962;SDS011;38827;53.024;6.596;2023-02-19T23:34:26;11.60;;;5.95;;
52962;SDS011;38827;53.024;6.596;2023-02-19T23:39:54;10.90;;;5.38;;
52962;SDS011;38827;53.024;6.596;2023-02-19T23:43:04;11.68;;;5.78;;
52962;SDS011;38827;53.024;6.596;2023-02-19T23:51:43;17.25;;;8.48;;
52962;SDS011;38827;53.024;6.596;2023-02-19T23:54:09;11.95;;;7.05;;
52962;SDS011;38827;53.024;6.596;2023-02-19T23:56:35;12.68;;;7.60;;
